Time;durP1;ratioP1;P1;durP2;ratioP2;P2;SDS_P1;SDS_P2;PMS_P1;PMS_P2;Temp;Humidity;BMP_temperature;BMP_pressure;BME280_temperature;BME280_humidity;BME280_pressure;Samples;Min_cycle;Max_cycle;Signal;HPM_P1;HPM_P2
2021/10/27 00:02:21;;;;;;;15.52;7.32;;;10.90;99.90;;;;;;5013418;28;20052;-76
2021/10/27 00:04:48;;;;;;;12.13;6.35;;;10.90;99.90;;;;;;5049026;28;20045;-80
2021/10/27 00:07:15;;;;;;;15.30;7.50;;;10.80;99.90;;;;;;5047801;28;20049;-77
2021/10/27 00:09:43;;;;;;;16.05;7.53;;;10.80;99.90;;;;;;5029318;28;20040;-79
2021/10/27 00:12:10;;;;;;;14.65;7.95;;;10.70;99.90;;;;;;5046374;28;20049;-77
2021/10/27 00:14:36;;;;;;;13.05;7.80;;;10.70;99.90;;;;;;5039095;28;20049;-78
2021/10/27 00:17:03;;;;;;;16.40;8.05;;;10.70;99.90;;;;;;5046033;28;20048;-76
2021/10/27 00:19:30;;;;;;;17.80;7.47;;;10.70;99.90;;;;;;5046142;28;20087;-77
2021/10/27 00:21:57;;;;;;;19.25;8.25;;;10.70;99.90;;;;;;5046484;28;20057;-78
2021/10/27 00:24:24;;;;;;;17.10;10.02;;;10.70;99.90;;;;;;5029016;28;20059;-76
2021/10/27 00:26:51;;;;;;;22.45;11.18;;;10.60;99.90;;;;;;5029401;28;20379;-77
2021/10/27 00:29:18;;;;;;;29.67;12.35;;;10.60;99.90;;;;;;5012317;28;20060;-77
2021/10/27 00:31:44;;;;;;;21.40;10.27;;;10.70;99.90;;;;;;5028647;28;20056;-76
2021/10/27 00:34:11;;;;;;;20.42;10.10;;;10.70;99.90;;;;;;5028528;28;20083;-77
2021/10/27 00:36:38;;;;;;;19.45;9.90;;;10.70;99.90;;;;;;5026688;28;20064;-78
2021/10/27 00:39:06;;;;;;;16.70;8.30;;;10.70;99.90;;;;;;5046079;28;20474;-78
2021/10/27 00:41:33;;;;;;;15.38;9.98;;;10.70;99.90;;;;;;5042057;28;20072;-77
2021/10/27 00:43:59;;;;;;;15.70;9.75;;;10.60;99.90;;;;;;5057427;28;20078;-79
2021/10/27 00:46:26;;;;;;;16.88;10.90;;;10.70;99.90;;;;;;5062882;28;20053;-77
2021/10/27 00:48:53;;;;;;;18.23;10.38;;;10.70;99.90;;;;;;5046474;28;20049;-78
2021/10/27 00:51:20;;;;;;;16.13;10.32;;;10.70;99.90;;;;;;5027641;28;20580;-79
2021/10/27 00:53:48;;;;;;;18.00;9.90;;;10.80;99.90;;;;;;5029069;28;20056;-78
2021/10/27 00:56:17;;;;;;;18.40;10.98;;;10.80;99.90;;;;;;4992950;28;20041;-78
2021/10/27 00:58:44;;;;;;;18.30;10.35;;;10.80;99.90;;;;;;5020215;28;20625;-79
2021/10/27 01:01:11;;;;;;;16.85;9.73;;;10.80;99.90;;;;;;5026951;28;20072;-77
2021/10/27 01:03:38;;;;;;;22.15;10.18;;;10.80;99.90;;;;;;5028169;28;20045;-81
2021/10/27 01:06:05;;;;;;;18.05;10.23;;;10.80;99.90;;;;;;5027057;28;20515;-77
2021/10/27 01:08:33;;;;;;;21.75;11.13;;;10.80;99.90;;;;;;5008190;28;20119;-78
2021/10/27 01:11:00;;;;;;;17.10;9.65;;;10.90;99.90;;;;;;5032877;28;20049;-78
2021/10/27 01:13:27;;;;;;;14.98;9.35;;;10.90;99.90;;;;;;5027250;28;20449;-77
2021/10/27 01:15:54;;;;;;;16.92;9.82;;;10.90;99.90;;;;;;5043918;28;20052;-78
2021/10/27 01:18:22;;;;;;;17.23;10.75;;;10.90;99.90;;;;;;5045133;28;20053;-78
2021/10/27 01:20:49;;;;;;;19.60;9.27;;;10.90;99.90;;;;;;5043165;28;20505;-77
2021/10/27 01:23:16;;;;;;;14.57;9.57;;;11.00;99.90;;;;;;5041107;28;20056;-77
2021/10/27 01:25:42;;;;;;;16.42;9.95;;;11.00;99.90;;;;;;5026535;28;20087;-79
2021/10/27 01:28:09;;;;;;;17.67;9.82;;;11.00;99.90;;;;;;5044252;28;20076;-81
2021/10/27 01:30:36;;;;;;;16.25;9.13;;;11.00;99.90;;;;;;5044533;28;20072;-78
2021/10/27 01:33:03;;;;;;;16.95;9.65;;;11.10;99.90;;;;;;5044138;28;20049;-78
2021/10/27 01:35:30;;;;;;;18.42;9.45;;;11.10;99.90;;;;;;5027077;28;20098;-77
2021/10/27 01:37:57;;;;;;;14.43;9.70;;;11.10;99.90;;;;;;5045155;28;20057;-78
2021/10/27 01:40:24;;;;;;;13.40;9.52;;;11.10;99.90;;;;;;5009894;28;20049;-78
2021/10/27 01:42:55;;;;;;;17.17;9.40;;;11.10;99.90;;;;;;5042754;28;20118;-77
2021/10/27 01:45:27;;;;;;;15.02;9.52;;;11.20;99.90;;;;;;5044029;28;20491;-76
2021/10/27 01:47:55;;;;;;;19.55;10.68;;;11.20;99.90;;;;;;5027621;28;20049;-77
2021/10/27 01:50:22;;;;;;;14.75;8.75;;;11.20;99.90;;;;;;5044081;28;20106;-78
2021/10/27 01:52:49;;;;;;;18.08;9.73;;;11.20;99.90;;;;;;5027350;28;20076;-80
2021/10/27 01:55:16;;;;;;;10.52;8.23;;;11.20;99.90;;;;;;5042366;28;20044;-78
2021/10/27 01:57:43;;;;;;;16.73;9.00;;;11.20;99.90;;;;;;5044776;28;20303;-78
2021/10/27 02:00:11;;;;;;;12.80;8.50;;;11.20;99.90;;;;;;5025447;28;20419;-78
2021/10/27 02:02:41;;;;;;;23.48;10.13;;;11.20;99.90;;;;;;5024196;28;20454;-77
2021/10/27 02:05:08;;;;;;;18.70;10.27;;;11.20;99.90;;;;;;5025842;28;20495;-78
2021/10/27 02:07:35;;;;;;;16.75;10.27;;;11.10;99.90;;;;;;5026699;28;20044;-77
2021/10/27 02:10:06;;;;;;;13.93;8.77;;;11.20;99.90;;;;;;5025819;28;20617;-78
2021/10/27 02:12:35;;;;;;;14.18;9.65;;;11.20;99.90;;;;;;5025665;28;20041;-76
2021/10/27 02:15:02;;;;;;;16.55;10.38;;;11.20;99.90;;;;;;5012355;28;20049;-77
2021/10/27 02:17:30;;;;;;;15.27;8.65;;;11.20;99.90;;;;;;5026093;28;20564;-78
2021/10/27 02:19:57;;;;;;;14.27;8.80;;;11.20;99.90;;;;;;5046724;28;20110;-78
2021/10/27 02:22:23;;;;;;;17.23;9.02;;;11.20;99.90;;;;;;5047457;28;20104;-77
2021/10/27 02:24:51;;;;;;;16.98;9.23;;;11.20;99.90;;;;;;5047201;28;20056;-77
2021/10/27 02:27:18;;;;;;;15.10;8.25;;;11.20;99.90;;;;;;5012940;28;20052;-77
2021/10/27 02:29:45;;;;;;;12.32;7.72;;;11.30;99.90;;;;;;5043088;28;20053;-77
2021/10/27 02:32:12;;;;;;;14.35;8.63;;;11.30;99.90;;;;;;5011682;28;20056;-77
2021/10/27 02:34:38;;;;;;;15.40;8.55;;;11.30;99.90;;;;;;5028793;28;20291;-77
2021/10/27 02:37:06;;;;;;;15.18;7.93;;;11.40;99.90;;;;;;5047332;28;20059;-78
2021/10/27 02:39:34;;;;;;;14.10;7.10;;;11.40;99.90;;;;;;5029028;28;20049;-77
2021/10/27 02:42:01;;;;;;;14.32;7.50;;;11.40;99.90;;;;;;5011835;28;20060;-78
2021/10/27 02:44:27;;;;;;;14.20;7.10;;;11.50;99.90;;;;;;5045553;28;20057;-77
2021/10/27 02:46:54;;;;;;;11.82;6.93;;;11.60;99.90;;;;;;5053514;28;20095;-77
2021/10/27 02:49:21;;;;;;;12.23;7.20;;;11.60;99.90;;;;;;5046365;28;20503;-78
2021/10/27 02:51:48;;;;;;;12.95;7.05;;;11.60;99.90;;;;;;5029025;28;20045;-75
2021/10/27 02:54:14;;;;;;;12.57;6.70;;;11.60;99.90;;;;;;5029341;28;20045;-75
2021/10/27 02:56:44;;;;;;;11.52;7.15;;;11.60;99.90;;;;;;5028129;28;20574;-78
2021/10/27 02:59:10;;;;;;;16.80;6.93;;;11.70;99.90;;;;;;5046061;28;20060;-77
2021/10/27 03:01:37;;;;;;;9.77;6.13;;;11.70;99.90;;;;;;5028833;28;20056;-77
2021/10/27 03:04:04;;;;;;;11.85;6.60;;;11.70;99.90;;;;;;5029012;28;20117;-78
2021/10/27 03:06:31;;;;;;;12.35;6.63;;;11.70;99.90;;;;;;4996330;28;20053;-78
2021/10/27 03:08:58;;;;;;;10.65;6.82;;;11.70;99.90;;;;;;5028308;28;20053;-80
2021/10/27 03:11:25;;;;;;;11.95;6.30;;;11.70;99.90;;;;;;5008870;28;20337;-77
2021/10/27 03:13:52;;;;;;;13.98;7.03;;;11.70;99.90;;;;;;5050133;28;20060;-77
2021/10/27 03:16:18;;;;;;;12.68;6.80;;;11.70;99.90;;;;;;5045589;28;20111;-78
2021/10/27 03:18:45;;;;;;;11.77;6.35;;;11.70;99.90;;;;;;5029536;28;20057;-78
2021/10/27 03:21:13;;;;;;;11.18;6.75;;;11.70;99.90;;;;;;5046990;28;20572;-77
2021/10/27 03:23:39;;;;;;;17.38;7.60;;;11.70;99.90;;;;;;5011306;28;20064;-77
2021/10/27 03:26:07;;;;;;;14.65;6.72;;;11.60;99.90;;;;;;5027432;28;20072;-78
2021/10/27 03:28:33;;;;;;;15.80;8.10;;;11.60;99.90;;;;;;5047250;28;20041;-78
2021/10/27 03:31:00;;;;;;;12.77;7.57;;;11.60;99.90;;;;;;5046917;28;20118;-76
2021/10/27 03:33:27;;;;;;;13.23;7.55;;;11.60;99.90;;;;;;5030065;28;20479;-77
2021/10/27 03:35:54;;;;;;;15.52;8.48;;;11.50;99.90;;;;;;5029253;28;20091;-80
2021/10/27 03:38:21;;;;;;;14.10;8.32;;;11.60;99.90;;;;;;5029102;28;20052;-77
2021/10/27 03:40:48;;;;;;;16.15;7.80;;;11.60;99.90;;;;;;5045226;28;20478;-78
2021/10/27 03:43:14;;;;;;;16.02;8.68;;;11.50;99.90;;;;;;5028190;28;20052;-78
2021/10/27 03:45:41;;;;;;;12.57;7.97;;;11.60;99.90;;;;;;5027710;28;20063;-79
2021/10/27 03:48:09;;;;;;;14.70;7.28;;;11.60;99.90;;;;;;5046607;28;20546;-79
2021/10/27 03:50:36;;;;;;;13.27;7.90;;;11.60;99.90;;;;;;5028461;28;20064;-78
2021/10/27 03:53:03;;;;;;;15.20;8.40;;;11.60;99.90;;;;;;5047739;28;20063;-77
2021/10/27 03:55:30;;;;;;;16.98;8.48;;;11.60;99.90;;;;;;5029412;28;20064;-78
2021/10/27 03:57:59;;;;;;;11.38;7.22;;;11.60;99.90;;;;;;5013852;28;20195;-77
2021/10/27 04:00:26;;;;;;;15.55;8.15;;;11.70;99.90;;;;;;5028400;28;20067;-77
2021/10/27 04:02:53;;;;;;;14.57;8.30;;;11.70;99.90;;;;;;5045440;28;20053;-77
2021/10/27 04:05:20;;;;;;;14.43;6.85;;;11.70;99.90;;;;;;5012252;28;20053;-75
2021/10/27 04:07:47;;;;;;;13.02;7.68;;;11.70;99.90;;;;;;5013510;28;20049;-78
2021/10/27 04:10:14;;;;;;;14.75;7.80;;;11.70;99.90;;;;;;5030125;28;20220;-76
2021/10/27 04:12:41;;;;;;;11.90;7.05;;;11.80;99.90;;;;;;5027616;28;20052;-80
2021/10/27 04:15:11;;;;;;;11.93;7.10;;;11.70;99.90;;;;;;5045246;28;20121;-74
2021/10/27 04:17:38;;;;;;;14.23;6.78;;;11.80;99.90;;;;;;5045125;28;20064;-79
2021/10/27 04:20:07;;;;;;;12.90;7.65;;;11.80;99.90;;;;;;5028648;28;20057;-79
2021/10/27 04:22:37;;;;;;;12.80;8.15;;;11.80;99.90;;;;;;5029239;28;20221;-77
2021/10/27 04:25:06;;;;;;;17.08;7.43;;;11.80;99.90;;;;;;5028036;28;20044;-77
2021/10/27 04:27:33;;;;;;;14.05;6.60;;;11.80;99.90;;;;;;5027284;28;20122;-78
2021/10/27 04:30:00;;;;;;;12.95;8.35;;;11.80;99.90;;;;;;5011900;28;20056;-77
2021/10/27 04:32:27;;;;;;;13.30;7.38;;;11.80;99.90;;;;;;5027602;28;20052;-77
2021/10/27 04:34:54;;;;;;;9.88;7.00;;;11.80;99.90;;;;;;5028135;28;20048;-78
2021/10/27 04:37:20;;;;;;;10.10;6.88;;;11.80;99.90;;;;;;5027592;28;20063;-77
2021/10/27 04:39:47;;;;;;;11.35;7.03;;;11.80;99.90;;;;;;5046672;28;20052;-78
2021/10/27 04:42:14;;;;;;;13.45;7.07;;;11.80;99.90;;;;;;5035492;28;20044;-79
2021/10/27 04:44:41;;;;;;;17.83;8.52;;;11.70;99.90;;;;;;5013245;28;20071;-76
2021/10/27 04:47:08;;;;;;;13.38;7.00;;;11.70;99.90;;;;;;5027592;28;20045;-78
2021/10/27 04:49:35;;;;;;;15.63;8.25;;;11.70;99.90;;;;;;5027847;28;20041;-78
2021/10/27 04:52:02;;;;;;;16.42;8.80;;;11.60;99.90;;;;;;5027461;28;20056;-77
2021/10/27 04:54:28;;;;;;;15.55;8.43;;;11.60;99.90;;;;;;5026862;28;20049;-78
2021/10/27 04:56:55;;;;;;;12.90;9.05;;;11.50;99.90;;;;;;5007639;28;20482;-78
2021/10/27 04:59:22;;;;;;;18.50;9.38;;;11.50;99.90;;;;;;5024638;28;20099;-77
2021/10/27 05:01:49;;;;;;;16.25;8.63;;;11.50;99.90;;;;;;5025558;28;20111;-78
2021/10/27 05:04:16;;;;;;;17.58;10.00;;;11.50;99.90;;;;;;5024584;28;20048;-78
2021/10/27 05:06:43;;;;;;;20.20;10.68;;;11.50;99.90;;;;;;5032700;28;20049;-78
2021/10/27 05:09:10;;;;;;;20.13;10.52;;;11.50;99.90;;;;;;5027376;28;20072;-77
2021/10/27 05:11:37;;;;;;;17.42;10.77;;;11.40;99.90;;;;;;5026972;28;20681;-76
2021/10/27 05:14:03;;;;;;;25.33;11.88;;;11.40;99.90;;;;;;5026463;28;20053;-78
2021/10/27 05:16:30;;;;;;;21.58;10.38;;;11.30;99.90;;;;;;5027748;28;20061;-78
2021/10/27 05:18:57;;;;;;;22.73;10.43;;;11.30;99.90;;;;;;5011343;28;20057;-79
2021/10/27 05:21:24;;;;;;;21.45;10.90;;;11.40;99.90;;;;;;5045562;28;20072;-78
2021/10/27 05:23:50;;;;;;;21.25;9.85;;;11.30;99.90;;;;;;5010840;28;20060;-81
2021/10/27 05:26:18;;;;;;;19.17;11.80;;;11.30;99.90;;;;;;5026073;28;20056;-80
2021/10/27 05:28:45;;;;;;;19.98;11.27;;;11.30;99.90;;;;;;5011375;28;20060;-77
2021/10/27 05:31:12;;;;;;;22.20;11.70;;;11.40;99.90;;;;;;5045371;28;20037;-76
2021/10/27 05:33:38;;;;;;;19.88;11.10;;;11.30;99.90;;;;;;5011967;28;20037;-77
2021/10/27 05:36:05;;;;;;;23.30;11.73;;;11.40;99.90;;;;;;5028181;28;20056;-76
2021/10/27 05:38:33;;;;;;;28.23;13.18;;;11.30;99.90;;;;;;5027112;28;20131;-79
2021/10/27 05:41:00;;;;;;;24.75;12.27;;;11.30;99.90;;;;;;5044378;28;20108;-80
2021/10/27 05:43:26;;;;;;;25.95;13.27;;;11.30;99.90;;;;;;5026621;28;20086;-78
2021/10/27 05:45:55;;;;;;;25.45;14.07;;;11.30;99.90;;;;;;5031692;28;20072;-80
2021/10/27 05:48:26;;;;;;;22.88;12.50;;;11.30;99.90;;;;;;5026759;28;20061;-78
2021/10/27 05:56:22;;;;;;;27.65;15.10;;;11.40;99.90;;;;;;5032903;28;20053;-76
2021/10/27 05:58:50;;;;;;;28.98;16.10;;;11.40;99.90;;;;;;5030968;28;20053;-79
2021/10/27 06:01:17;;;;;;;29.30;15.48;;;11.30;99.90;;;;;;5030980;28;20045;-78
2021/10/27 06:03:44;;;;;;;28.70;15.55;;;11.30;99.90;;;;;;5015173;28;20402;-77
2021/10/27 06:06:12;;;;;;;31.65;17.00;;;11.30;99.90;;;;;;5030809;28;20049;-77
2021/10/27 06:08:39;;;;;;;27.13;15.70;;;11.30;99.90;;;;;;5030799;28;20442;-78
2021/10/27 06:11:11;;;;;;;30.05;16.90;;;11.30;99.90;;;;;;5029729;28;20041;-79
2021/10/27 06:13:47;;;;;;;29.25;15.95;;;11.40;99.90;;;;;;5029397;28;20510;-81
2021/10/27 06:16:15;;;;;;;26.48;15.40;;;11.40;99.90;;;;;;5030124;28;20164;-80
2021/10/27 06:18:42;;;;;;;25.88;15.68;;;11.50;99.90;;;;;;5063573;28;20048;-78
2021/10/27 06:21:12;;;;;;;27.52;14.82;;;11.50;99.90;;;;;;5045234;28;20474;-78
2021/10/27 06:23:40;;;;;;;25.85;15.15;;;11.50;99.90;;;;;;5029921;28;20122;-76
2021/10/27 06:26:07;;;;;;;27.17;15.25;;;11.50;99.90;;;;;;5046670;28;20045;-78
2021/10/27 06:28:55;;;;;;;30.30;15.45;;;11.50;99.90;;;;;;5031023;28;20705;-75
2021/10/27 06:31:30;;;;;;;26.67;15.20;;;11.60;99.90;;;;;;5047261;28;20631;-79
2021/10/27 06:34:06;;;;;;;29.58;14.65;;;11.60;99.90;;;;;;5030881;28;20302;-78
2021/10/27 06:36:52;;;;;;;17.63;11.98;;;11.60;99.90;;;;;;5047604;28;20045;-78
2021/10/27 06:45:56;;;;;;;22.45;13.68;;;11.70;99.90;;;;;;5030580;28;20053;-79
2021/10/27 06:47:49;;;;;;;19.00;11.68;;;11.80;99.90;;;;;;5028421;28;20087;-75
2021/10/27 06:50:16;;;;;;;21.08;11.65;;;11.90;99.90;;;;;;5009334;28;20042;-78
2021/10/27 06:52:43;;;;;;;19.30;11.73;;;11.90;99.90;;;;;;5061928;28;20126;-76
2021/10/27 06:55:10;;;;;;;19.38;11.82;;;11.90;99.90;;;;;;5029605;28;20057;-77
2021/10/27 06:57:37;;;;;;;22.77;11.77;;;11.90;99.90;;;;;;5030512;28;20037;-75
2021/10/27 07:00:19;;;;;;;18.02;9.95;;;12.00;99.90;;;;;;5046556;28;20068;-76
2021/10/27 07:05:28;;;;;;;16.45;10.07;;;12.10;99.90;;;;;;5029318;28;20152;-77
2021/10/27 07:16:11;;;;;;;15.68;8.50;;;12.20;99.90;;;;;;5060034;28;20076;-76
2021/10/27 07:18:39;;;;;;;14.40;8.98;;;12.30;99.90;;;;;;4997118;28;20041;-78
2021/10/27 07:21:06;;;;;;;17.02;8.55;;;12.30;99.90;;;;;;5013329;28;20065;-78
2021/10/27 07:23:34;;;;;;;15.98;8.73;;;12.30;99.90;;;;;;5029725;28;20151;-80
2021/10/27 07:26:01;;;;;;;14.68;8.30;;;12.30;99.90;;;;;;5028130;28;20064;-78
2021/10/27 07:28:30;;;;;;;12.63;8.40;;;12.30;99.90;;;;;;5012799;28;20122;-77
2021/10/27 07:30:59;;;;;;;13.85;9.52;;;12.30;99.90;;;;;;5046720;28;20129;-79
2021/10/27 07:33:27;;;;;;;11.20;6.88;;;12.30;99.90;;;;;;5013069;28;20153;-76
2021/10/27 07:36:00;;;;;;;15.52;8.60;;;12.30;99.90;;;;;;5047103;28;20045;-78
2021/10/27 07:41:13;;;;;;;15.63;8.25;;;12.40;99.90;;;;;;5037305;28;20041;-80
2021/10/27 07:43:41;;;;;;;10.93;7.82;;;12.40;99.90;;;;;;5011266;28;20243;-80
2021/10/27 07:46:08;;;;;;;9.07;7.00;;;12.40;99.90;;;;;;5006478;28;20057;-80
2021/10/27 07:48:35;;;;;;;15.70;7.53;;;12.50;99.90;;;;;;5022959;28;20048;-79
2021/10/27 07:51:02;;;;;;;15.02;8.65;;;12.40;99.90;;;;;;5045091;28;20582;-79
2021/10/27 07:53:31;;;;;;;10.30;6.05;;;12.50;99.90;;;;;;5037406;28;20136;-76
2021/10/27 07:55:59;;;;;;;10.73;6.20;;;12.50;99.90;;;;;;5029258;28;20099;-80
2021/10/27 07:58:27;;;;;;;12.63;6.68;;;12.50;99.90;;;;;;5047327;28;20057;-80
2021/10/27 08:00:57;;;;;;;8.20;6.45;;;12.50;99.90;;;;;;5044205;28;20052;-78
2021/10/27 08:03:28;;;;;;;12.13;6.45;;;12.50;99.90;;;;;;5047393;28;20045;-78
2021/10/27 08:06:06;;;;;;;8.95;6.78;;;12.50;99.90;;;;;;4996832;28;20048;-79
2021/10/27 08:08:33;;;;;;;13.73;6.85;;;12.60;99.90;;;;;;5032033;28;20044;-76
2021/10/27 08:11:00;;;;;;;12.63;8.70;;;12.60;99.90;;;;;;5043727;28;20048;-78
2021/10/27 08:13:27;;;;;;;10.27;7.38;;;12.60;99.90;;;;;;5029345;28;20047;-77
2021/10/27 08:15:56;;;;;;;6.95;6.25;;;12.60;99.90;;;;;;5047828;28;20045;-77
2021/10/27 08:18:22;;;;;;;12.48;6.60;;;12.60;99.90;;;;;;5047384;28;20053;-76
2021/10/27 08:20:51;;;;;;;15.73;7.00;;;12.60;99.90;;;;;;5032791;28;20418;-77
2021/10/27 08:23:20;;;;;;;7.28;5.50;;;12.60;99.90;;;;;;5024960;28;20470;-75
2021/10/27 08:25:52;;;;;;;11.52;5.57;;;12.60;99.90;;;;;;5045844;28;20057;-78
2021/10/27 08:28:22;;;;;;;8.88;5.97;;;12.70;99.90;;;;;;5011198;28;20053;-76
2021/10/27 08:31:31;;;;;;;7.20;5.50;;;12.70;99.90;;;;;;5028150;28;20056;-75
2021/10/27 08:34:04;;;;;;;11.10;6.15;;;12.70;99.90;;;;;;5043211;28;20056;-77
2021/10/27 08:36:31;;;;;;;7.55;5.05;;;12.70;99.90;;;;;;5025028;28;20333;-75
2021/10/27 08:38:59;;;;;;;9.35;6.57;;;12.80;99.90;;;;;;5008203;28;20041;-76
2021/10/27 08:41:44;;;;;;;10.02;7.18;;;12.80;99.90;;;;;;5004982;28;20116;-76
2021/10/27 08:44:10;;;;;;;10.50;8.65;;;12.80;99.90;;;;;;5027154;28;20049;-77
2021/10/27 08:46:38;;;;;;;26.42;17.90;;;12.80;99.90;;;;;;5046205;28;20466;-77
2021/10/27 08:49:06;;;;;;;13.05;7.47;;;12.80;99.90;;;;;;5046495;28;20049;-75
2021/10/27 08:51:35;;;;;;;8.75;6.88;;;12.80;99.90;;;;;;5027973;28;20273;-75
2021/10/27 08:54:04;;;;;;;6.20;5.53;;;12.90;99.90;;;;;;5045253;28;20068;-78
2021/10/27 08:56:31;;;;;;;10.45;5.75;;;12.90;99.90;;;;;;5010829;28;20334;-76
2021/10/27 08:59:12;;;;;;;10.45;5.43;;;13.00;99.90;;;;;;5045719;28;20119;-77
2021/10/27 09:01:49;;;;;;;9.88;5.43;;;13.00;99.90;;;;;;5045421;28;20045;-76
2021/10/27 09:04:29;;;;;;;7.03;5.82;;;13.10;99.90;;;;;;5028048;28;20130;-76
2021/10/27 09:07:08;;;;;;;7.55;5.55;;;13.00;99.90;;;;;;5009758;28;20049;-78
2021/10/27 09:33:57;;;;;;;5.65;4.70;;;13.30;99.90;;;;;;5027506;28;20117;-74
2021/10/27 09:36:26;;;;;;;8.38;4.43;;;13.40;99.90;;;;;;5026890;28;20044;-75
2021/10/27 10:06:52;;;;;;;6.10;4.50;;;13.70;99.90;;;;;;5028047;28;20045;-74
2021/10/27 10:09:19;;;;;;;8.23;5.45;;;13.80;99.90;;;;;;5024152;28;20052;-74
2021/10/27 10:11:49;;;;;;;8.48;4.85;;;13.80;99.90;;;;;;5038300;28;20138;-73
2021/10/27 10:14:18;;;;;;;11.18;4.30;;;13.80;99.90;;;;;;5045514;28;20120;-74
2021/10/27 10:16:49;;;;;;;7.28;4.13;;;13.80;99.90;;;;;;5041173;28;20052;-74
2021/10/27 10:19:28;;;;;;;5.40;4.00;;;13.90;99.90;;;;;;5010791;28;20071;-74
2021/10/27 10:21:55;;;;;;;5.93;3.75;;;13.90;99.90;;;;;;5043965;28;20057;-73
2021/10/27 10:24:25;;;;;;;8.80;4.10;;;13.90;99.90;;;;;;5045638;28;20080;-73
2021/10/27 10:26:57;;;;;;;9.10;4.57;;;13.90;99.90;;;;;;5009877;28;20051;-74
2021/10/27 10:29:52;;;;;;;7.78;3.60;;;13.80;99.90;;;;;;5026463;28;20098;-73
2021/10/27 10:32:24;;;;;;;4.95;4.30;;;13.90;99.90;;;;;;5046079;28;20053;-72
2021/10/27 10:35:08;;;;;;;5.45;3.95;;;13.80;99.90;;;;;;5048582;28;20111;-73
2021/10/27 10:38:02;;;;;;;9.80;4.07;;;13.80;99.90;;;;;;5031730;28;20052;-74
2021/10/27 10:40:41;;;;;;;5.03;4.28;;;13.80;99.90;;;;;;5013601;28;20470;-73
2021/10/27 11:24:34;;;;;;;4.97;4.47;;;13.90;99.90;;;;;;5029490;28;20059;-75
2021/10/27 11:38:19;;;;;;;8.20;5.63;;;14.00;99.90;;;;;;5026271;28;20656;-73
2021/10/27 11:40:49;;;;;;;16.23;10.05;;;14.00;99.90;;;;;;5045544;28;20099;-75
2021/10/27 11:43:25;;;;;;;12.85;9.65;;;14.00;99.90;;;;;;5017477;28;20073;-74
2021/10/27 11:45:57;;;;;;;8.18;5.70;;;14.00;99.90;;;;;;4994262;28;20487;-74
2021/10/27 11:51:09;;;;;;;6.05;5.50;;;14.10;99.90;;;;;;5060985;28;20052;-72
2021/10/27 11:53:36;;;;;;;5.90;4.68;;;14.20;99.90;;;;;;5039987;28;20458;-75
2021/10/27 11:56:18;;;;;;;6.18;5.50;;;14.20;99.90;;;;;;5031023;28;20040;-76
2021/10/27 11:58:55;;;;;;;7.75;4.75;;;14.20;99.90;;;;;;5030613;28;20507;-74
2021/10/27 12:01:26;;;;;;;7.93;5.57;;;14.20;99.90;;;;;;5013960;28;20076;-75
2021/10/27 12:03:58;;;;;;;5.75;5.20;;;14.20;99.90;;;;;;5029590;28;20265;-75
2021/10/27 12:06:35;;;;;;;8.45;5.75;;;14.20;99.90;;;;;;5013964;28;20083;-73
2021/10/27 12:09:10;;;;;;;5.78;5.25;;;14.30;99.90;;;;;;5025912;28;20054;-73
2021/10/27 12:12:04;;;;;;;7.45;5.18;;;14.30;99.90;;;;;;5035211;28;20057;-74
2021/10/27 12:20:04;;;;;;;5.72;5.00;;;14.30;99.90;;;;;;5045106;28;20097;-74
2021/10/27 12:22:32;;;;;;;6.35;5.78;;;14.40;99.90;;;;;;5046458;28;20067;-75
2021/10/27 12:25:04;;;;;;;9.02;5.72;;;14.50;99.90;;;;;;5012922;28;20049;-75
2021/10/27 12:27:34;;;;;;;10.10;5.32;;;14.50;99.90;;;;;;5028113;28;20057;-76
2021/10/27 12:30:14;;;;;;;8.88;5.72;;;14.50;99.90;;;;;;5026481;28;20128;-75
2021/10/27 12:32:57;;;;;;;7.75;5.82;;;14.60;99.90;;;;;;5045904;28;20475;-73
2021/10/27 12:35:27;;;;;;;6.90;6.28;;;14.60;99.90;;;;;;5027665;28;20048;-74
2021/10/27 12:38:19;;;;;;;6.28;5.68;;;14.60;99.90;;;;;;5028696;28;20053;-75
2021/10/27 12:40:48;;;;;;;10.20;7.03;;;14.60;99.90;;;;;;5044077;28;20098;-73
2021/10/27 12:43:20;;;;;;;7.32;6.47;;;14.50;99.90;;;;;;5027321;28;20048;-74
2021/10/27 12:45:51;;;;;;;8.95;6.85;;;14.40;99.90;;;;;;5027863;28;20045;-74
2021/10/27 12:48:22;;;;;;;6.70;6.10;;;14.30;99.90;;;;;;5042830;28;20064;-75
2021/10/27 12:50:52;;;;;;;7.43;6.72;;;14.30;99.90;;;;;;5044538;28;20486;-76
2021/10/27 12:53:32;;;;;;;7.53;6.68;;;14.30;99.90;;;;;;5044303;28;20057;-75
2021/10/27 12:56:12;;;;;;;7.90;7.10;;;14.30;99.90;;;;;;5028883;28;20434;-73
2021/10/27 12:58:46;;;;;;;12.15;8.18;;;14.30;99.90;;;;;;5027695;28;20470;-77
2021/10/27 13:07:04;;;;;;;8.70;6.72;;;14.20;99.90;;;;;;5010924;28;20349;-76
2021/10/27 13:20:14;;;;;;;;;;;14.20;99.90;;;;;;5027414;28;20048;-73
2021/10/27 13:33:20;;;;;;;10.85;7.70;;;14.40;99.90;;;;;;5026819;28;20095;-74
2021/10/27 13:35:47;;;;;;;7.90;6.32;;;14.50;99.90;;;;;;5011135;28;20044;-75
2021/10/27 13:38:17;;;;;;;7.05;6.40;;;14.50;99.90;;;;;;5026772;28;20060;-75
2021/10/27 13:40:45;;;;;;;7.03;6.35;;;14.60;99.90;;;;;;5026878;28;20052;-75
2021/10/27 13:43:29;;;;;;;7.32;6.45;;;14.60;99.90;;;;;;5040841;28;20053;-75
2021/10/27 14:07:55;;;;;;;;;;;14.60;99.90;;;;;;5025773;28;20076;-74
2021/10/27 14:18:54;;;;;;;8.57;7.45;;;14.70;99.90;;;;;;5040135;28;20053;-74
2021/10/27 15:19:46;;;;;;;5.07;4.57;;;13.90;99.90;;;;;;5051478;28;19921;-73
2021/10/27 15:30:45;;;;;;;8.73;4.93;;;13.70;99.90;;;;;;5028996;28;20064;-75
2021/10/27 15:33:42;;;;;;;6.63;4.95;;;13.60;99.90;;;;;;5030881;28;20103;-73
2021/10/27 15:41:32;;;;;;;6.95;4.43;;;13.50;99.90;;;;;;5050916;28;20134;-74
2021/10/27 15:51:44;;;;;;;7.20;5.80;;;13.40;99.90;;;;;;5055096;28;20063;-73
2021/10/27 15:54:15;;;;;;;9.60;6.30;;;13.40;99.90;;;;;;5030169;28;20047;-74
2021/10/27 15:56:43;;;;;;;9.02;4.95;;;13.40;99.90;;;;;;5047927;28;20324;-75
2021/10/27 15:59:10;;;;;;;5.90;5.18;;;13.30;99.90;;;;;;5047766;28;20387;-73
2021/10/27 16:01:37;;;;;;;5.40;4.10;;;13.20;99.90;;;;;;5027143;28;20052;-74
2021/10/27 16:04:05;;;;;;;5.78;3.83;;;13.10;99.90;;;;;;5011583;28;20072;-74
2021/10/27 16:06:40;;;;;;;8.98;4.25;;;13.00;99.90;;;;;;5011811;28;20055;-74
2021/10/27 16:09:11;;;;;;;6.93;5.55;;;13.00;99.90;;;;;;5029226;28;20052;-74
2021/10/27 16:11:38;;;;;;;9.02;5.97;;;12.90;99.90;;;;;;5028376;28;20045;-74
2021/10/27 16:14:05;;;;;;;10.52;5.80;;;12.70;99.90;;;;;;5027186;28;20037;-74
2021/10/27 16:16:34;;;;;;;9.43;5.70;;;12.70;99.90;;;;;;5028073;28;20049;-74
2021/10/27 16:19:20;;;;;;;14.52;4.90;;;12.60;99.90;;;;;;5007641;28;20072;-73
2021/10/27 16:22:06;;;;;;;;;;;12.50;99.90;;;;;;5047170;28;20580;-73
2021/10/27 16:24:33;;;;;;;8.63;6.30;;;12.40;99.90;;;;;;5028072;28;19943;-72
2021/10/27 16:27:00;;;;;;;14.57;8.85;;;12.30;99.90;;;;;;5027562;28;20060;-74
2021/10/27 16:29:27;;;;;;;19.85;10.25;;;12.30;99.90;;;;;;5044654;28;20081;-75
2021/10/27 16:31:54;;;;;;;29.38;14.70;;;12.30;99.90;;;;;;5026833;28;20045;-74
2021/10/27 16:34:20;;;;;;;27.52;15.05;;;12.30;99.90;;;;;;5010902;28;20048;-73
2021/10/27 16:36:48;;;;;;;14.13;8.57;;;12.30;99.90;;;;;;5027418;28;20170;-75
2021/10/27 16:39:19;;;;;;;18.25;7.40;;;12.30;99.90;;;;;;5009711;28;20048;-75
2021/10/27 16:41:45;;;;;;;41.20;20.67;;;12.20;99.90;;;;;;5045739;28;20658;-73
2021/10/27 16:44:12;;;;;;;46.58;22.90;;;12.20;99.90;;;;;;5010945;28;20132;-73
2021/10/27 16:46:39;;;;;;;39.55;22.05;;;12.00;99.90;;;;;;5027901;28;20049;-74
2021/10/27 16:49:06;;;;;;;42.40;21.80;;;11.90;99.90;;;;;;5028362;28;20489;-73
2021/10/27 16:51:34;;;;;;;66.43;30.90;;;11.90;99.90;;;;;;5057669;28;20449;-71
2021/10/27 16:54:01;;;;;;;33.40;16.38;;;11.80;99.90;;;;;;5044509;28;20407;-74
2021/10/27 16:56:31;;;;;;;22.58;12.93;;;11.70;99.90;;;;;;5042053;28;20045;-74
2021/10/27 16:58:58;;;;;;;22.50;15.30;;;11.60;99.90;;;;;;5006225;28;20044;-73
2021/10/27 17:01:25;;;;;;;22.40;15.07;;;11.50;99.90;;;;;;5024617;28;20107;-74
2021/10/27 17:03:53;;;;;;;17.48;12.45;;;11.40;99.90;;;;;;5007950;28;20115;-74
2021/10/27 17:06:20;;;;;;;21.73;14.25;;;11.40;99.90;;;;;;5025927;28;20045;-72
2021/10/27 17:08:47;;;;;;;22.67;14.48;;;11.20;99.90;;;;;;5010843;28;20057;-73
2021/10/27 17:11:29;;;;;;;20.70;13.23;;;11.20;99.90;;;;;;4996776;28;20099;-75
2021/10/27 17:13:56;;;;;;;20.70;13.32;;;10.90;99.90;;;;;;5028216;28;20374;-73
2021/10/27 17:16:23;;;;;;;24.27;13.98;;;10.90;99.90;;;;;;5044302;28;20049;-74
2021/10/27 17:18:50;;;;;;;17.75;12.48;;;10.80;99.90;;;;;;5027996;28;20072;-75
2021/10/27 17:21:17;;;;;;;21.48;13.52;;;10.70;99.90;;;;;;5009999;28;20045;-74
2021/10/27 17:23:48;;;;;;;20.67;13.98;;;10.50;99.90;;;;;;5044437;28;20156;-75
2021/10/27 17:26:15;;;;;;;20.13;11.38;;;10.50;99.90;;;;;;5010837;28;20531;-75